Time;durP1;ratioP1;P1;durP2;ratioP2;P2;SDS_P1;SDS_P2;PMS_P1;PMS_P2;Temp;Humidity;BMP_temperature;BMP_pressure;BME280_temperature;BME280_humidity;BME280_pressure;Samples;Min_cycle;Max_cycle;Signal;HPM_P1;HPM_P2
2023/07/01 00:00:28;;;;;;;0.40;0.40;;;16.20;99.90;;;;;;5032456;28;20225;-64
2023/07/01 00:02:54;;;;;;;1.05;0.90;;;16.20;99.90;;;;;;5032191;28;20436;-64
2023/07/01 00:05:20;;;;;;;0.50;0.50;;;16.10;99.90;;;;;;5014206;28;20685;-64
2023/07/01 00:07:47;;;;;;;1.77;0.68;;;16.20;99.90;;;;;;5031522;28;20206;-64
2023/07/01 00:10:13;;;;;;;0.45;0.45;;;16.20;99.90;;;;;;5031944;28;20260;-64
2023/07/01 00:12:38;;;;;;;0.73;0.73;;;16.10;99.90;;;;;;5032281;28;20226;-64
2023/07/01 00:15:04;;;;;;;0.85;0.70;;;16.20;99.90;;;;;;5032228;28;20677;-64
2023/07/01 00:17:30;;;;;;;3.75;0.80;;;16.20;99.90;;;;;;5031790;28;20779;-64
2023/07/01 00:19:56;;;;;;;0.35;0.35;;;16.30;99.90;;;;;;5032034;28;20241;-64
2023/07/01 00:22:21;;;;;;;0.88;0.88;;;16.20;99.90;;;;;;5031730;28;20194;-64
2023/07/01 00:24:47;;;;;;;0.30;0.30;;;16.10;99.90;;;;;;5014452;28;20233;-63
2023/07/01 00:27:13;;;;;;;2.50;1.05;;;16.00;99.90;;;;;;5031604;28;20735;-64
2023/07/01 00:29:39;;;;;;;0.60;0.60;;;15.80;99.90;;;;;;5031545;28;20214;-64
2023/07/01 00:32:05;;;;;;;0.30;0.30;;;15.70;99.90;;;;;;5031830;28;20554;-64
2023/07/01 00:34:31;;;;;;;3.28;0.75;;;15.70;99.90;;;;;;5031268;28;20297;-64
2023/07/01 00:36:57;;;;;;;0.55;0.55;;;15.80;99.90;;;;;;5037351;28;20651;-64
2023/07/01 00:39:22;;;;;;;2.45;1.05;;;15.80;99.90;;;;;;5051368;28;20683;-64
2023/07/01 00:41:55;;;;;;;0.30;0.30;;;15.90;99.90;;;;;;5037760;28;20206;-63
2023/07/01 00:44:23;;;;;;;0.30;0.30;;;15.90;99.90;;;;;;5031457;28;20202;-64
2023/07/01 00:46:49;;;;;;;0.30;0.30;;;15.90;99.90;;;;;;5031020;28;20194;-64
2023/07/01 00:49:15;;;;;;;1.45;1.20;;;15.90;99.90;;;;;;5031202;28;20217;-64
2023/07/01 00:51:41;;;;;;;0.93;0.68;;;16.00;99.90;;;;;;5031361;28;20186;-64
2023/07/01 00:54:07;;;;;;;0.40;0.40;;;16.00;99.90;;;;;;5031428;28;20194;-64
2023/07/01 00:56:32;;;;;;;0.60;0.60;;;16.00;99.90;;;;;;5030993;28;20196;-64
2023/07/01 00:58:59;;;;;;;0.30;0.30;;;16.10;99.90;;;;;;5030695;28;20205;-64
2023/07/01 01:01:34;;;;;;;0.63;0.63;;;16.10;99.90;;;;;;5030990;28;20558;-64
2023/07/01 01:04:20;;;;;;;0.30;0.30;;;16.00;99.90;;;;;;5027644;28;20328;-64
2023/07/01 01:07:03;;;;;;;0.52;0.52;;;16.00;99.90;;;;;;5031340;28;20280;-64
2023/07/01 01:09:51;;;;;;;0.30;0.30;;;16.00;99.90;;;;;;5015338;28;20206;-64
2023/07/01 01:12:17;;;;;;;0.30;0.30;;;16.00;99.90;;;;;;5031149;28;20221;-64
2023/07/01 01:14:44;;;;;;;0.30;0.30;;;15.90;99.90;;;;;;5031280;28;20554;-64
2023/07/01 01:17:14;;;;;;;1.42;0.77;;;15.70;99.90;;;;;;5031159;28;20198;-63
2023/07/01 01:19:46;;;;;;;0.40;0.40;;;15.70;99.90;;;;;;5031050;28;20715;-64
2023/07/01 01:22:20;;;;;;;0.40;0.40;;;15.60;99.90;;;;;;5032781;28;20665;-63
2023/07/01 01:24:55;;;;;;;0.40;0.40;;;15.60;99.90;;;;;;5035271;28;20272;-65
2023/07/01 01:27:27;;;;;;;0.30;0.30;;;15.60;99.90;;;;;;5033685;28;20677;-62
2023/07/01 01:29:59;;;;;;;0.43;0.43;;;15.60;99.90;;;;;;5034354;28;20677;-63
2023/07/01 01:32:28;;;;;;;0.50;0.50;;;15.60;99.90;;;;;;5031260;28;20489;-63
2023/07/01 01:34:54;;;;;;;0.47;0.47;;;15.50;99.90;;;;;;5033424;28;20213;-66
2023/07/01 01:38:04;;;;;;;0.30;0.30;;;15.50;99.90;;;;;;5034567;28;20202;-66
2023/07/01 01:41:03;;;;;;;1.20;1.10;;;15.40;99.90;;;;;;5014383;28;20288;-66
2023/07/01 01:43:42;;;;;;;0.40;0.40;;;15.40;99.90;;;;;;5025480;28;20268;-66
2023/07/01 01:46:08;;;;;;;0.30;0.30;;;15.30;99.90;;;;;;5033156;28;20212;-65
2023/07/01 01:48:39;;;;;;;1.98;0.73;;;15.20;99.90;;;;;;5015452;28;20194;-65
2023/07/01 01:51:06;;;;;;;0.68;0.57;;;15.20;99.90;;;;;;5032289;28;20206;-66
2023/07/01 01:53:33;;;;;;;1.08;0.93;;;15.10;99.90;;;;;;5030545;28;20217;-66
2023/07/01 01:55:58;;;;;;;3.22;1.15;;;15.10;99.90;;;;;;5029346;28;20316;-66
2023/07/01 01:58:24;;;;;;;0.40;0.40;;;15.10;99.90;;;;;;5012344;28;20194;-67
2023/07/01 02:00:50;;;;;;;0.50;0.50;;;15.00;99.90;;;;;;5030023;28;20641;-66
2023/07/01 02:03:47;;;;;;;0.50;0.50;;;15.00;99.90;;;;;;5031176;28;20280;-66
2023/07/01 02:06:13;;;;;;;0.75;0.68;;;15.00;99.90;;;;;;5011106;28;20662;-66
2023/07/01 02:08:39;;;;;;;0.40;0.40;;;14.90;99.90;;;;;;5030567;28;20209;-66
2023/07/01 02:11:05;;;;;;;0.65;0.65;;;14.80;99.90;;;;;;5015745;28;20213;-66
2023/07/01 02:13:31;;;;;;;0.45;0.45;;;14.80;99.90;;;;;;5030828;28;20186;-67
2023/07/01 02:15:57;;;;;;;0.30;0.30;;;14.80;99.90;;;;;;5034537;28;20198;-66
2023/07/01 02:18:25;;;;;;;0.40;0.40;;;14.70;99.90;;;;;;5033309;28;20198;-65
2023/07/01 02:20:53;;;;;;;0.40;0.40;;;14.60;99.90;;;;;;5030567;28;20190;-66
2023/07/01 02:23:18;;;;;;;0.50;0.50;;;14.50;99.90;;;;;;5032725;28;20198;-66
2023/07/01 02:25:45;;;;;;;1.02;0.93;;;14.60;99.90;;;;;;5033376;28;20203;-65
2023/07/01 02:28:11;;;;;;;0.40;0.40;;;14.70;99.90;;;;;;5033926;28;20605;-65
2023/07/01 02:30:38;;;;;;;0.30;0.30;;;14.80;99.90;;;;;;5035075;28;20216;-65
2023/07/01 02:33:04;;;;;;;0.45;0.45;;;14.90;99.90;;;;;;5030246;28;20233;-67
2023/07/01 02:35:30;;;;;;;0.30;0.30;;;15.00;99.90;;;;;;5031203;28;20206;-65
2023/07/01 02:38:07;;;;;;;0.43;0.43;;;15.10;99.90;;;;;;5037126;28;20190;-67
2023/07/01 02:40:33;;;;;;;0.70;0.60;;;15.10;99.90;;;;;;5032761;28;20267;-66
2023/07/01 02:43:05;;;;;;;2.60;1.00;;;15.20;99.90;;;;;;5032771;28;20230;-66
2023/07/01 02:45:30;;;;;;;0.40;0.40;;;15.30;99.90;;;;;;5030836;28;20186;-66
2023/07/01 02:47:59;;;;;;;1.17;0.82;;;15.30;99.90;;;;;;5032210;28;20532;-66
2023/07/01 02:50:44;;;;;;;0.40;0.40;;;15.40;99.90;;;;;;5014918;28;20221;-66
2023/07/01 02:53:15;;;;;;;0.75;0.75;;;15.50;99.90;;;;;;5030828;28;20183;-66
2023/07/01 02:55:56;;;;;;;0.40;0.40;;;15.60;99.90;;;;;;5033264;28;20738;-66
2023/07/01 02:58:23;;;;;;;1.50;0.85;;;15.60;99.90;;;;;;5010100;28;20214;-65
2023/07/01 03:01:45;;;;;;;0.40;0.40;;;15.60;99.90;;;;;;5030656;28;20610;-66
2023/07/01 03:04:11;;;;;;;4.95;0.95;;;15.70;99.90;;;;;;4990460;28;20239;-67
2023/07/01 03:06:37;;;;;;;3.72;1.30;;;15.70;99.90;;;;;;4988081;28;20325;-67
2023/07/01 03:09:07;;;;;;;0.68;0.68;;;15.80;99.90;;;;;;4988652;28;20286;-67
2023/07/01 03:11:36;;;;;;;0.50;0.50;;;15.90;99.90;;;;;;4991726;28;20196;-67
2023/07/01 03:14:02;;;;;;;0.30;0.30;;;15.80;99.90;;;;;;4991737;28;20675;-67
2023/07/01 03:16:30;;;;;;;0.40;0.40;;;15.90;99.90;;;;;;4974843;28;20668;-67
2023/07/01 03:18:58;;;;;;;0.60;0.60;;;15.90;99.90;;;;;;4972253;28;20205;-67
2023/07/01 03:21:26;;;;;;;0.38;0.38;;;15.90;99.90;;;;;;4971796;28;20231;-67
2023/07/01 03:23:52;;;;;;;0.60;0.60;;;16.00;99.90;;;;;;4956195;28;20316;-67
2023/07/01 03:26:18;;;;;;;0.22;0.22;;;16.10;99.90;;;;;;4972486;28;20586;-67
2023/07/01 03:28:45;;;;;;;0.55;0.55;;;16.10;99.90;;;;;;4972545;28;20660;-67
2023/07/01 03:31:11;;;;;;;0.25;0.25;;;16.20;99.90;;;;;;4990433;28;20581;-67
2023/07/01 03:33:42;;;;;;;0.38;0.38;;;16.30;99.90;;;;;;4992308;28;20315;-67
2023/07/01 03:36:09;;;;;;;1.95;0.52;;;16.40;99.90;;;;;;4991720;28;20203;-67
2023/07/01 03:38:35;;;;;;;0.55;0.55;;;16.40;99.90;;;;;;5001702;28;20216;-67
2023/07/01 03:41:01;;;;;;;0.45;0.45;;;16.50;99.90;;;;;;5053795;28;20221;-67
2023/07/01 03:43:27;;;;;;;15.70;0.65;;;16.50;99.90;;;;;;5053328;28;20205;-67
2023/07/01 03:45:54;;;;;;;0.30;0.30;;;16.60;99.90;;;;;;5052958;28;20228;-67
2023/07/01 03:48:20;;;;;;;1.02;0.65;;;16.60;99.90;;;;;;5054796;28;20220;-68
2023/07/01 03:50:46;;;;;;;0.30;0.30;;;16.70;99.90;;;;;;5056958;28;20664;-67
2023/07/01 03:53:11;;;;;;;0.20;0.20;;;16.80;99.90;;;;;;5038249;28;20198;-66
2023/07/01 03:55:37;;;;;;;0.40;0.40;;;17.00;99.90;;;;;;5033138;28;20201;-66
2023/07/01 03:58:04;;;;;;;0.88;0.77;;;17.00;99.90;;;;;;5032788;28;20213;-66
2023/07/01 04:00:30;;;;;;;0.52;0.50;;;17.10;99.90;;;;;;5032271;28;20186;-67
2023/07/01 04:03:02;;;;;;;0.38;0.38;;;17.10;99.90;;;;;;5032301;28;20232;-66
2023/07/01 04:05:28;;;;;;;1.15;0.80;;;17.20;99.90;;;;;;5004093;28;20198;-66
2023/07/01 04:07:54;;;;;;;0.73;0.73;;;17.20;99.90;;;;;;5035506;28;20701;-66
2023/07/01 04:10:21;;;;;;;1.20;1.00;;;17.20;99.90;;;;;;5036448;28;20228;-67
2023/07/01 04:13:03;;;;;;;0.63;0.63;;;17.20;99.90;;;;;;5034069;28;20229;-67
2023/07/01 04:15:37;;;;;;;0.32;0.32;;;17.30;99.90;;;;;;5020814;28;20215;-68
2023/07/01 04:18:04;;;;;;;5.78;0.98;;;17.30;99.90;;;;;;5019380;28;20603;-66
2023/07/01 04:20:57;;;;;;;1.13;0.63;;;17.40;99.90;;;;;;5034524;28;20562;-67
2023/07/01 04:23:23;;;;;;;5.10;0.80;;;17.40;99.90;;;;;;5038519;28;20277;-63
2023/07/01 04:25:48;;;;;;;0.38;0.38;;;17.50;99.90;;;;;;5031938;28;20225;-64
2023/07/01 04:28:35;;;;;;;0.30;0.30;;;17.60;99.90;;;;;;5034396;28;20723;-63
2023/07/01 04:31:00;;;;;;;0.30;0.30;;;17.70;99.90;;;;;;5020246;28;20260;-68
2023/07/01 04:33:27;;;;;;;0.95;0.73;;;17.80;99.90;;;;;;5037387;28;20193;-63
2023/07/01 04:36:19;;;;;;;3.92;1.10;;;17.90;99.90;;;;;;5019940;28;20202;-64
2023/07/01 04:38:45;;;;;;;2.13;1.42;;;18.00;99.90;;;;;;5011697;28;20614;-64
2023/07/01 04:41:11;;;;;;;0.25;0.25;;;18.10;99.90;;;;;;5012083;28;20281;-64
2023/07/01 04:43:37;;;;;;;1.08;0.80;;;18.10;99.90;;;;;;5015380;28;20229;-64
2023/07/01 04:46:14;;;;;;;0.30;0.30;;;17.90;99.90;;;;;;5019183;28;20191;-64
2023/07/01 04:49:09;;;;;;;3.45;0.65;;;18.00;99.90;;;;;;5024133;28;20202;-64
2023/07/01 04:51:48;;;;;;;0.60;0.60;;;18.00;99.90;;;;;;5034625;28;20208;-63
2023/07/01 04:54:14;;;;;;;4.18;0.82;;;18.00;99.90;;;;;;5015330;28;20241;-64
2023/07/01 04:56:47;;;;;;;0.60;0.60;;;18.00;99.90;;;;;;5032432;28;20275;-64
2023/07/01 04:59:53;;;;;;;0.60;0.60;;;18.00;99.90;;;;;;5036172;28;20202;-64
2023/07/01 05:02:20;;;;;;;0.28;0.28;;;18.00;99.90;;;;;;5017106;28;20233;-65
2023/07/01 05:05:18;;;;;;;0.80;0.65;;;18.20;99.90;;;;;;5036873;28;20202;-64
2023/07/01 05:08:05;;;;;;;0.30;0.30;;;18.20;99.90;;;;;;5029217;28;20217;-67
2023/07/01 05:10:41;;;;;;;0.40;0.40;;;18.10;99.90;;;;;;5019634;28;20218;-68
2023/07/01 05:13:06;;;;;;;0.10;0.10;;;18.20;99.90;;;;;;5037382;28;20197;-66
2023/07/01 05:15:33;;;;;;;0.47;0.47;;;18.10;99.90;;;;;;5031263;28;20284;-67
2023/07/01 05:17:58;;;;;;;0.40;0.40;;;18.30;99.90;;;;;;5035487;28;20202;-65
2023/07/01 05:20:27;;;;;;;0.55;0.55;;;18.40;99.90;;;;;;5037593;28;20202;-67
2023/07/01 05:23:05;;;;;;;0.57;0.57;;;18.50;99.90;;;;;;5037745;28;20202;-67
2023/07/01 05:26:13;;;;;;;;;;;;;;;;;;;;;
2023/07/01 05:28:48;;;;;;;0.98;0.90;;;18.20;99.90;;;;;;5016930;28;21018;-66
2023/07/01 05:31:15;;;;;;;0.50;0.40;;;18.30;99.90;;;;;;5019356;28;20225;-67
2023/07/01 05:33:44;;;;;;;0.47;0.47;;;18.30;99.90;;;;;;5013336;28;20674;-67
2023/07/01 05:36:11;;;;;;;0.47;0.47;;;18.20;99.90;;;;;;5016628;28;20229;-69
2023/07/01 05:38:37;;;;;;;0.40;0.40;;;18.30;99.90;;;;;;5034950;28;20607;-68
2023/07/01 05:41:03;;;;;;;0.40;0.40;;;18.20;99.90;;;;;;5033952;28;20198;-68
2023/07/01 05:43:34;;;;;;;2.83;0.93;;;18.30;99.90;;;;;;5037101;28;20205;-68
2023/07/01 05:46:00;;;;;;;0.65;0.65;;;18.50;99.90;;;;;;5036314;28;20197;-67
2023/07/01 05:48:25;;;;;;;0.38;0.38;;;18.30;99.90;;;;;;5035711;28;20201;-62
2023/07/01 05:50:51;;;;;;;1.55;1.20;;;18.30;99.90;;;;;;5030629;28;20206;-62
2023/07/01 05:53:17;;;;;;;1.23;0.82;;;18.50;99.90;;;;;;5032727;28;20222;-62
2023/07/01 05:55:55;;;;;;;1.98;1.33;;;18.40;99.90;;;;;;5035835;28;20199;-63
2023/07/01 05:58:34;;;;;;;0.47;0.35;;;18.50;99.90;;;;;;5019328;28;20204;-64
2023/07/01 06:01:00;;;;;;;0.63;0.60;;;18.80;99.90;;;;;;5035180;28;20190;-64
2023/07/01 06:03:44;;;;;;;1.30;1.20;;;19.00;99.90;;;;;;5034988;28;20230;-68
2023/07/01 06:06:10;;;;;;;0.30;0.30;;;18.90;99.90;;;;;;5030310;28;20194;-67
2023/07/01 06:08:36;;;;;;;3.15;1.10;;;18.80;99.90;;;;;;5030792;28;20244;-66
2023/07/01 06:11:01;;;;;;;1.45;1.20;;;18.90;99.90;;;;;;5030222;28;20293;-67
2023/07/01 06:13:51;;;;;;;1.58;1.05;;;19.20;99.90;;;;;;5034775;28;20190;-67
2023/07/01 06:16:17;;;;;;;0.80;0.80;;;19.30;99.90;;;;;;5033516;28;20190;-67
2023/07/01 06:18:55;;;;;;;1.25;0.50;;;19.30;99.90;;;;;;5036460;28;20206;-67
2023/07/01 06:21:21;;;;;;;4.18;0.95;;;19.40;99.90;;;;;;5035627;28;20194;-66
2023/07/01 06:23:47;;;;;;;2.63;0.75;;;19.30;99.90;;;;;;5034383;28;20194;-68
2023/07/01 06:26:27;;;;;;;0.35;0.35;;;19.30;99.90;;;;;;5035518;28;20198;-70
2023/07/01 06:28:53;;;;;;;1.48;0.57;;;19.50;99.90;;;;;;5030009;28;20225;-68
2023/07/01 06:31:18;;;;;;;3.83;0.57;;;19.80;99.90;;;;;;5012082;28;20241;-68
2023/07/01 06:33:45;;;;;;;0.88;0.88;;;19.60;99.90;;;;;;5030265;28;20261;-68
2023/07/01 06:36:12;;;;;;;0.85;0.70;;;19.40;99.90;;;;;;5029971;28;20186;-68
2023/07/01 06:38:40;;;;;;;0.35;0.30;;;19.60;99.90;;;;;;5049358;28;20209;-68
2023/07/01 06:41:06;;;;;;;0.57;0.57;;;19.70;99.90;;;;;;5041925;28;20202;-68
2023/07/01 06:43:32;;;;;;;0.28;0.28;;;19.80;99.90;;;;;;5029899;28;20213;-68
2023/07/01 06:45:59;;;;;;;0.40;0.40;;;20.00;99.90;;;;;;5016048;28;20213;-68
2023/07/01 06:48:25;;;;;;;0.95;0.50;;;20.30;99.90;;;;;;5033627;28;20203;-68
2023/07/01 06:50:50;;;;;;;0.40;0.40;;;20.40;99.90;;;;;;5033832;28;20218;-68
2023/07/01 06:53:16;;;;;;;0.40;0.40;;;20.50;99.90;;;;;;5033644;28;20213;-67
2023/07/01 06:55:42;;;;;;;0.63;0.57;;;20.40;99.90;;;;;;5033583;28;20190;-68
2023/07/01 06:58:08;;;;;;;0.93;0.57;;;20.50;99.90;;;;;;5033800;28;20197;-68
2023/07/01 07:00:33;;;;;;;0.47;0.47;;;20.40;99.90;;;;;;5033337;28;20237;-68
2023/07/01 07:03:00;;;;;;;0.20;0.20;;;20.50;99.90;;;;;;5033578;28;20308;-68
2023/07/01 07:05:26;;;;;;;0.57;0.50;;;20.40;99.90;;;;;;5033615;28;20665;-68
2023/07/01 07:07:52;;;;;;;0.20;0.20;;;20.50;99.90;;;;;;5033741;28;20194;-68
2023/07/01 07:10:18;;;;;;;3.50;0.95;;;20.20;99.90;;;;;;5033483;28;20222;-68
2023/07/01 07:12:44;;;;;;;1.75;0.77;;;20.40;99.90;;;;;;5033631;28;20190;-68
2023/07/01 07:15:10;;;;;;;0.20;0.20;;;20.80;99.90;;;;;;5033235;28;20210;-68
2023/07/01 07:17:36;;;;;;;0.50;0.50;;;21.00;99.90;;;;;;5033587;28;20561;-68
2023/07/01 07:20:02;;;;;;;0.20;0.20;;;20.90;99.90;;;;;;5033770;28;20610;-68
2023/07/01 07:22:28;;;;;;;2.03;1.25;;;21.10;99.90;;;;;;5033039;28;20213;-68
2023/07/01 07:24:55;;;;;;;0.30;0.30;;;21.20;99.90;;;;;;5033477;28;20198;-68
2023/07/01 07:27:20;;;;;;;0.20;0.20;;;21.30;99.90;;;;;;5033139;28;20246;-68
2023/07/01 07:29:46;;;;;;;0.65;0.65;;;21.40;99.90;;;;;;5033109;28;20295;-68
2023/07/01 07:32:12;;;;;;;4.43;1.33;;;21.40;99.90;;;;;;5033300;28;20292;-68
2023/07/01 07:34:38;;;;;;;0.77;0.40;;;21.50;99.90;;;;;;5032996;28;20198;-68
2023/07/01 07:37:05;;;;;;;0.60;0.60;;;21.60;99.90;;;;;;5033571;28;20190;-68
2023/07/01 07:39:31;;;;;;;1.75;1.02;;;21.70;99.90;;;;;;5033027;28;20292;-68
2023/07/01 07:41:57;;;;;;;0.20;0.20;;;21.70;99.90;;;;;;5033205;28;20198;-68
2023/07/01 07:44:22;;;;;;;0.22;0.22;;;22.00;99.90;;;;;;5032842;28;20217;-68
2023/07/01 07:46:48;;;;;;;0.25;0.25;;;22.20;99.90;;;;;;5033173;28;20694;-68
2023/07/01 07:49:16;;;;;;;0.22;0.22;;;22.00;99.90;;;;;;5015205;28;20209;-68
2023/07/01 07:51:42;;;;;;;0.52;0.52;;;21.90;99.90;;;;;;5032641;28;20198;-68
2023/07/01 07:54:08;;;;;;;0.30;0.30;;;21.60;99.90;;;;;;5032640;28;20202;-68
2023/07/01 07:56:33;;;;;;;0.57;0.47;;;21.40;99.90;;;;;;5032101;28;20190;-68
2023/07/01 07:58:59;;;;;;;0.30;0.30;;;21.50;99.90;;;;;;5032962;28;20277;-68
2023/07/01 08:01:25;;;;;;;0.38;0.38;;;21.50;99.90;;;;;;5014475;28;20205;-68
2023/07/01 08:03:50;;;;;;;0.73;0.60;;;21.50;99.90;;;;;;5032456;28;20226;-68
2023/07/01 08:06:17;;;;;;;0.73;0.73;;;21.50;99.90;;;;;;5032536;28;20252;-68
2023/07/01 08:08:43;;;;;;;0.75;0.60;;;21.40;99.90;;;;;;5032530;28;20197;-68
2023/07/01 08:11:08;;;;;;;0.50;0.50;;;21.10;99.90;;;;;;5032375;28;20206;-68
2023/07/01 08:13:34;;;;;;;1.55;1.17;;;20.90;99.90;;;;;;5032419;28;20570;-68
2023/07/01 08:16:00;;;;;;;1.42;0.95;;;20.80;99.90;;;;;;5032458;28;20316;-68
2023/07/01 08:18:25;;;;;;;0.20;0.20;;;20.70;99.90;;;;;;5032210;28;20194;-68
2023/07/01 08:20:51;;;;;;;0.63;0.52;;;20.80;99.90;;;;;;5032504;28;20198;-67
2023/07/01 08:23:17;;;;;;;0.68;0.30;;;21.00;99.90;;;;;;5032357;28;20186;-68
2023/07/01 08:25:43;;;;;;;0.77;0.77;;;21.40;99.90;;;;;;5032062;28;20252;-68
2023/07/01 08:28:09;;;;;;;1.65;0.50;;;22.00;99.90;;;;;;5014377;28;20198;-67
2023/07/01 08:30:35;;;;;;;0.25;0.25;;;22.60;99.90;;;;;;5031811;28;20206;-68
2023/07/01 08:33:01;;;;;;;0.50;0.50;;;22.70;99.90;;;;;;5031709;28;20221;-67
2023/07/01 08:35:28;;;;;;;0.30;0.30;;;22.30;99.90;;;;;;5031890;28;20191;-68
2023/07/01 08:37:53;;;;;;;0.30;0.30;;;22.60;99.90;;;;;;5027267;28;20723;-68
2023/07/01 08:40:19;;;;;;;0.30;0.30;;;22.80;99.90;;;;;;5051533;28;20228;-68
2023/07/01 08:42:55;;;;;;;0.35;0.35;;;23.00;99.90;;;;;;5052114;28;20678;-68
2023/07/01 08:45:22;;;;;;;0.70;0.45;;;23.00;99.90;;;;;;5033812;28;20232;-68
2023/07/01 08:47:48;;;;;;;0.38;0.32;;;22.80;99.90;;;;;;5051834;28;20199;-68
2023/07/01 08:50:18;;;;;;;0.30;0.30;;;22.40;99.90;;;;;;5051564;28;20198;-67
2023/07/01 08:52:47;;;;;;;0.73;0.60;;;22.00;99.90;;;;;;5040539;28;20264;-68
2023/07/01 08:55:13;;;;;;;0.20;0.20;;;21.70;99.90;;;;;;5031676;28;20202;-67
2023/07/01 08:57:40;;;;;;;0.45;0.45;;;21.60;99.90;;;;;;5031566;28;20279;-67
2023/07/01 09:00:09;;;;;;;0.40;0.40;;;21.80;99.90;;;;;;5031463;28;20190;-67
2023/07/01 09:02:36;;;;;;;0.20;0.20;;;22.30;99.90;;;;;;5031339;28;20600;-67
2023/07/01 09:05:02;;;;;;;0.45;0.40;;;22.70;99.90;;;;;;5031645;28;20198;-67
2023/07/01 09:07:29;;;;;;;1.52;0.85;;;22.40;99.90;;;;;;5030486;28;20213;-67
2023/07/01 09:09:56;;;;;;;0.25;0.25;;;22.30;99.90;;;;;;5031517;28;20218;-67
2023/07/01 09:12:26;;;;;;;0.40;0.40;;;22.20;99.90;;;;;;5031232;28;20186;-67
2023/07/01 09:15:04;;;;;;;0.47;0.47;;;22.30;99.90;;;;;;5031533;28;20658;-68
2023/07/01 09:17:38;;;;;;;0.45;0.45;;;22.20;99.90;;;;;;5031118;28;20221;-67
2023/07/01 09:20:11;;;;;;;0.38;0.38;;;22.80;99.90;;;;;;5031323;28;20194;-68
2023/07/01 09:22:45;;;;;;;0.32;0.32;;;23.30;99.90;;;;;;5031064;28;20186;-68
2023/07/01 09:25:31;;;;;;;0.60;0.60;;;23.30;99.90;;;;;;5031262;28;20316;-68
2023/07/01 09:27:57;;;;;;;0.63;0.50;;;23.50;99.90;;;;;;5030995;28;20206;-67
2023/07/01 09:30:25;;;;;;;0.35;0.30;;;23.70;99.90;;;;;;5030483;28;20220;-68
2023/07/01 09:32:51;;;;;;;4.95;0.60;;;23.80;99.90;;;;;;5030976;28;20198;-68
2023/07/01 09:35:17;;;;;;;0.47;0.47;;;24.20;99.90;;;;;;5030853;28;20284;-67
2023/07/01 09:37:42;;;;;;;1.48;0.38;;;24.10;99.90;;;;;;5042406;28;20281;-67
2023/07/01 09:40:23;;;;;;;0.63;0.63;;;24.30;99.90;;;;;;5051156;28;20263;-68
2023/07/01 09:42:50;;;;;;;0.25;0.25;;;24.60;99.90;;;;;;5033026;28;20197;-68
2023/07/01 09:45:16;;;;;;;0.40;0.40;;;25.00;99.90;;;;;;5050916;28;20193;-68
2023/07/01 09:47:42;;;;;;;0.30;0.30;;;25.10;99.90;;;;;;5050574;28;20203;-68
2023/07/01 09:50:08;;;;;;;0.30;0.30;;;24.50;99.90;;;;;;5034750;28;20695;-68
2023/07/01 09:52:35;;;;;;;0.55;0.47;;;24.60;99.90;;;;;;5030839;28;20197;-68
2023/07/01 09:55:03;;;;;;;0.80;0.50;;;24.80;99.90;;;;;;5030761;28;20664;-68
2023/07/01 09:57:30;;;;;;;0.22;0.22;;;25.30;99.90;;;;;;5030659;28;20704;-68
2023/07/01 09:59:56;;;;;;;0.95;0.85;;;25.90;99.90;;;;;;5030658;28;20709;-69
2023/07/01 10:02:22;;;;;;;0.20;0.20;;;26.20;99.90;;;;;;5029992;28;20282;-68
2023/07/01 10:04:48;;;;;;;0.50;0.50;;;26.40;99.90;;;;;;5030556;28;20225;-68
2023/07/01 10:07:14;;;;;;;0.82;0.55;;;26.60;99.90;;;;;;5030585;28;20229;-68
2023/07/01 10:09:44;;;;;;;0.88;0.63;;;25.60;99.90;;;;;;5030568;28;20579;-68
2023/07/01 10:12:12;;;;;;;0.47;0.38;;;25.30;99.90;;;;;;5030728;28;20276;-68
2023/07/01 10:14:39;;;;;;;0.30;0.30;;;24.70;99.90;;;;;;5030390;28;20222;-68
2023/07/01 10:17:05;;;;;;;0.30;0.25;;;24.30;99.90;;;;;;5030473;28;20186;-68
2023/07/01 10:19:33;;;;;;;0.82;0.82;;;24.00;99.90;;;;;;5033332;28;20226;-68
2023/07/01 10:22:29;;;;;;;0.45;0.40;;;23.90;99.90;;;;;;5034663;28;20209;-68
2023/07/01 10:25:06;;;;;;;3.40;0.40;;;23.40;99.90;;;;;;5034440;28;20193;-68
2023/07/01 10:27:44;;;;;;;0.15;0.15;;;23.30;99.90;;;;;;5014494;28;20264;-68
2023/07/01 10:30:13;;;;;;;1.88;0.60;;;23.40;99.90;;;;;;4996686;28;20218;-68
2023/07/01 10:32:40;;;;;;;2.03;0.60;;;23.80;99.90;;;;;;5014766;28;20187;-68
2023/07/01 10:35:07;;;;;;;0.52;0.52;;;24.60;99.90;;;;;;5014543;28;20198;-68
2023/07/01 10:37:34;;;;;;;1.25;0.77;;;25.10;99.90;;;;;;5034918;28;20288;-68
2023/07/01 10:40:07;;;;;;;0.30;0.30;;;25.30;99.90;;;;;;5054493;28;20649;-68
2023/07/01 10:42:34;;;;;;;0.90;0.57;;;24.50;99.90;;;;;;5054113;28;20297;-68
2023/07/01 10:45:12;;;;;;;3.00;0.43;;;24.20;99.90;;;;;;5042499;28;20251;-69
2023/07/01 10:47:44;;;;;;;3.35;0.77;;;23.80;99.90;;;;;;5034146;28;20229;-68
2023/07/01 10:50:15;;;;;;;0.20;0.17;;;23.50;99.90;;;;;;5032776;28;20206;-68
2023/07/01 10:52:59;;;;;;;0.35;0.35;;;23.40;99.90;;;;;;5016055;28;20272;-67
2023/07/01 10:55:40;;;;;;;0.30;0.30;;;23.30;99.90;;;;;;5034118;28;20201;-68
2023/07/01 10:58:23;;;;;;;0.60;0.50;;;23.00;99.90;;;;;;5033823;28;20247;-67
2023/07/01 11:00:58;;;;;;;1.30;1.10;;;22.70;99.90;;;;;;5033785;28;20202;-69
2023/07/01 11:03:36;;;;;;;0.30;0.30;;;22.30;99.90;;;;;;5033310;28;20217;-67
2023/07/01 11:06:12;;;;;;;0.50;0.50;;;21.90;99.90;;;;;;5033726;28;20209;-67
2023/07/01 11:08:52;;;;;;;0.88;0.70;;;21.60;99.90;;;;;;5033565;28;20590;-67
2023/07/01 11:11:26;;;;;;;0.43;0.43;;;21.70;99.90;;;;;;5033762;28;20202;-67
2023/07/01 11:13:59;;;;;;;0.45;0.45;;;21.70;99.90;;;;;;5033578;28;20665;-68
2023/07/01 11:16:26;;;;;;;0.93;0.77;;;22.00;99.90;;;;;;5033365;28;20236;-68
2023/07/01 11:18:54;;;;;;;0.30;0.30;;;22.80;99.90;;;;;;5033786;28;20677;-68
2023/07/01 11:21:25;;;;;;;0.22;0.22;;;23.60;99.90;;;;;;5033129;28;20216;-68
2023/07/01 11:23:56;;;;;;;1.38;1.23;;;24.40;99.90;;;;;;5013756;28;20197;-68
2023/07/01 11:26:24;;;;;;;1.08;0.70;;;24.30;99.90;;;;;;5013494;28;20682;-68
2023/07/01 11:28:51;;;;;;;0.30;0.30;;;24.70;99.90;;;;;;5012540;28;20736;-68
2023/07/01 11:31:19;;;;;;;0.28;0.28;;;24.50;99.90;;;;;;5011481;28;20215;-68
2023/07/01 11:33:49;;;;;;;0.28;0.28;;;24.30;99.90;;;;;;5013831;28;20202;-68
2023/07/01 11:36:17;;;;;;;0.40;0.40;;;23.80;99.90;;;;;;5013398;28;20194;-68
2023/07/01 11:38:47;;;;;;;0.30;0.30;;;23.30;99.90;;;;;;5013328;28;20666;-68
2023/07/01 11:41:15;;;;;;;0.73;0.57;;;23.00;99.90;;;;;;5017418;28;20201;-69
2023/07/01 11:43:41;;;;;;;0.25;0.25;;;23.40;99.90;;;;;;5015557;28;20190;-69
2023/07/01 11:46:09;;;;;;;0.80;0.68;;;24.30;99.90;;;;;;5033350;28;20213;-69
2023/07/01 11:48:35;;;;;;;0.52;0.52;;;25.10;99.90;;;;;;5032528;28;20197;-69
2023/07/01 11:51:03;;;;;;;0.25;0.25;;;25.80;99.90;;;;;;5032933;28;20201;-69
2023/07/01 11:53:28;;;;;;;0.20;0.20;;;26.20;99.90;;;;;;5032640;28;20208;-69
2023/07/01 11:55:58;;;;;;;0.30;0.30;;;25.90;99.90;;;;;;5032226;28;20202;-69
2023/07/01 11:58:37;;;;;;;3.38;0.60;;;25.70;99.90;;;;;;5032694;28;20205;-69
2023/07/01 12:01:03;;;;;;;0.30;0.30;;;26.30;99.90;;;;;;5033004;28;20892;-70
2023/07/01 12:03:35;;;;;;;0.30;0.30;;;26.50;99.10;;;;;;5032192;28;20229;-69
2023/07/01 12:06:01;;;;;;;1.95;0.93;;;26.30;96.20;;;;;;5032734;28;20198;-69
2023/07/01 12:08:49;;;;;;;0.30;0.30;;;26.40;98.10;;;;;;5032464;28;20914;-69
2023/07/01 12:11:16;;;;;;;0.65;0.63;;;26.20;97.10;;;;;;5032413;28;20244;-69
2023/07/01 12:13:42;;;;;;;1.35;0.68;;;26.50;98.40;;;;;;5032515;28;20289;-69
2023/07/01 12:16:08;;;;;;;1.73;0.68;;;26.90;95.10;;;;;;5032515;28;20277;-69
2023/07/01 12:18:33;;;;;;;0.25;0.25;;;27.00;98.00;;;;;;5014288;28;20248;-68
2023/07/01 12:20:59;;;;;;;0.43;0.43;;;27.30;96.90;;;;;;5032391;28;20233;-69
2023/07/01 12:23:25;;;;;;;0.20;0.15;;;26.50;96.60;;;;;;5014566;28;20197;-69
2023/07/01 12:25:51;;;;;;;1.75;0.52;;;25.80;98.80;;;;;;5032271;28;20563;-69
2023/07/01 12:28:20;;;;;;;0.47;0.47;;;25.30;99.70;;;;;;5032284;28;20198;-69
2023/07/01 12:30:46;;;;;;;0.20;0.20;;;24.80;99.90;;;;;;5032067;28;20233;-70
2023/07/01 12:33:13;;;;;;;0.93;0.40;;;24.30;99.90;;;;;;5032225;28;20602;-69
2023/07/01 12:35:41;;;;;;;0.35;0.30;;;24.00;99.90;;;;;;5032246;28;20316;-69
2023/07/01 12:38:14;;;;;;;0.30;0.30;;;24.30;99.90;;;;;;5032923;28;20203;-69
2023/07/01 12:40:40;;;;;;;1.27;0.80;;;25.00;99.90;;;;;;5032338;28;20198;-68
2023/07/01 12:43:07;;;;;;;0.22;0.22;;;25.60;99.90;;;;;;5030941;28;20197;-69
2023/07/01 12:45:33;;;;;;;0.30;0.30;;;25.70;99.90;;;;;;5031550;28;20244;-69
2023/07/01 12:48:00;;;;;;;0.40;0.40;;;26.40;99.90;;;;;;5032130;28;20190;-69
2023/07/01 12:50:26;;;;;;;0.20;0.20;;;26.50;99.90;;;;;;5031932;28;20209;-69
2023/07/01 12:52:53;;;;;;;0.00;0.00;;;26.70;99.90;;;;;;5031682;28;20213;-69
2023/07/01 12:55:19;;;;;;;1.30;0.32;;;27.20;99.90;;;;;;5031536;28;20198;-70
2023/07/01 12:57:45;;;;;;;0.55;0.55;;;27.30;99.80;;;;;;5013819;28;20201;-69
2023/07/01 13:00:12;;;;;;;0.57;0.57;;;26.70;99.10;;;;;;5031490;28;20197;-69